Gladwin, Iowa
Current Conditions -  °F | °C
As of 5:35 PM on Saturday 22 Nov 2014 (Local Time) from KAWG Reporting Station
Overcast Overcast  
Wind Chill: 55°   Ceiling: 1400
Heat Index: 55°   Visibility: 10mi
Dew Point: 55°   Wind: 12mph
Humidity: 100%   Direction: 190°S
Pressure: 29.79"   Gusts: 17mph
Location:  41.2636°N, 91.4145°W
Report Text: KAWG 222335Z AUTO 19010G15KT 10SM OVC014 13/13 A2979 RMK AO2
Loading
Personal Weather Stations






























Interactive Weather Map New forecast layout! Learn more

10-Day Weather Forecast

Advertisements
Track Severe Weather on mobile